Webster, FL (33597)

9:38 AM EST on December 05, 2016 (GMT -0500)
Hawkspoint | | Change Station

Elev 118 ft 28.63 °N, 82.06 °W | Updated 7 seconds ago

Overcast
Overcast
75.7 °F
Feels Like 75 °F
N
6.1
Wind Variable Wind from South
Gusts 9.8 mph

Today
High -- | Low -- °F
--% Chance of Precip.
Yesterday
High -- | Low -- °F
Precip. -- in
Pressure 30.00 in
Visibility 7.0 miles
Clouds Overcast 600 ft
Heat Index 75 °F
Dew Point 73 °F
Humidity 92%
Rainfall 0.00 in
Snow Depth Not available.
7:06 AM 5:31 PM
Waxing Crescent, 32% visible
METAR KINF 051435Z AUTO 18010KT 7SM OVC006 23/22 A3000 RMK AO2
Pressure 30.00 in
Visibility 7.0 miles
Clouds Overcast 600 ft
Heat Index 75 °F
Dew Point 73 °F
Humidity 92%
Rainfall 0.00 in
Snow Depth Not available.
7:06 AM 5:31 PM
Waxing Crescent, 32% visible
METAR KINF 051435Z AUTO 18010KT 7SM OVC006 23/22 A3000 RMK AO2

10-Day Weather Forecast

Almanac

Astronomy

Dec. 05, 2016 Rise Set
Actual Time
Civil Twilight
Nautical Twilight
Astronomical Twilight
Moon
Length of Visible Light
Length of Day
Tomorrow will be .
, % of the Moon is Illuminated

Today's Extremes

State Highs State Lows

Community

WunderPhotos

Upload Photos

1,955,782 photos uploaded!

WunderBlog® & News

Nearby

Air Quality

  Air Quality AQ Index Pollutant
Not available.

Snow Depth

Station Depth Elevation

Earthquake Activity

City Distance Mag. Time & Date
Minimum magnitude displayed is 2.5.

Coastal Water Temperatures

Place Temperature

Stations

Nearby Weather Stations

Station Location Temp. Windchill Dew Point Humidity Wind Precip. Elev Updated Type
                   

Watches & Warnings

There are currently no watches in effect.